createdAt,value
2018-05-09T00:01:47.038Z,89.30
2018-05-09T00:04:15.098Z,89.10
2018-05-09T00:06:43.002Z,88.70
2018-05-09T00:09:11.038Z,88.90
2018-05-09T00:11:39.098Z,88.80
2018-05-09T00:14:06.960Z,89.20
2018-05-09T00:16:34.880Z,89.40
2018-05-09T00:19:02.699Z,89.20
2018-05-09T00:21:30.779Z,89.30
2018-05-09T00:23:59.179Z,89.20
2018-05-09T00:26:27.420Z,89.40
2018-05-09T00:28:55.351Z,89.20
2018-05-09T00:31:23.359Z,89.30
2018-05-09T00:33:51.199Z,89.20
2018-05-09T00:36:19.120Z,89.70
2018-05-09T00:38:46.879Z,89.70
2018-05-09T00:41:14.799Z,89.90
2018-05-09T00:43:42.659Z,90.00
2018-05-09T00:46:11.381Z,90.00
2018-05-09T00:48:39.583Z,90.00
2018-05-09T00:51:07.679Z,90.10
2018-05-09T00:53:35.639Z,90.10
2018-05-09T00:56:03.499Z,90.10
2018-05-09T00:58:31.396Z,90.20
2018-05-09T01:00:59.279Z,90.40
2018-05-09T01:03:27.221Z,90.40
2018-05-09T01:05:55.420Z,90.30
2018-05-09T01:08:23.579Z,90.30
2018-05-09T01:10:51.440Z,90.30
2018-05-09T01:13:19.482Z,90.40
2018-05-09T01:15:47.420Z,90.40
2018-05-09T01:18:15.521Z,90.20
2018-05-09T01:20:43.500Z,90.20
2018-05-09T01:23:11.400Z,90.10
2018-05-09T01:25:39.360Z,90.00
2018-05-09T01:28:07.260Z,90.00
2018-05-09T01:30:36.040Z,89.30
2018-05-09T01:33:04.060Z,89.30
2018-05-09T01:35:32.079Z,89.80
2018-05-09T01:37:59.899Z,89.80
2018-05-09T01:40:27.737Z,89.70
2018-05-09T01:42:56.880Z,89.50
2018-05-09T01:45:24.757Z,89.40
2018-05-09T01:47:52.618Z,89.40
2018-05-09T01:50:20.936Z,89.30
2018-05-09T01:52:48.877Z,89.20
2018-05-09T01:55:16.937Z,89.70
2018-05-09T01:57:45.217Z,90.00
2018-05-09T02:00:12.897Z,90.00
2018-05-09T02:02:41.594Z,89.90
2018-05-09T02:05:09.514Z,89.80
2018-05-09T02:07:38.134Z,89.70
2018-05-09T02:10:06.296Z,89.60
2018-05-09T02:12:34.313Z,89.80
2018-05-09T02:15:02.254Z,89.80
2018-05-09T02:17:30.411Z,90.00
2018-05-09T02:19:58.373Z,90.00
2018-05-09T02:22:26.234Z,89.80
2018-05-09T02:24:54.279Z,89.90
2018-05-09T02:27:22.178Z,89.80
2018-05-09T02:29:50.293Z,90.00
2018-05-09T02:32:18.237Z,90.10
2018-05-09T02:34:46.314Z,90.10
2018-05-09T02:37:14.254Z,90.20
2018-05-09T02:39:42.535Z,90.40
2018-05-09T02:42:10.376Z,90.40
2018-05-09T02:44:38.938Z,90.50
2018-05-09T02:47:06.838Z,90.50
2018-05-09T02:49:34.975Z,90.50
2018-05-09T02:52:02.875Z,90.30
2018-05-09T02:54:31.575Z,90.50
2018-05-09T02:56:59.455Z,90.10
2018-05-09T02:59:27.496Z,90.00
2018-05-09T03:01:55.456Z,90.00
2018-05-09T03:04:23.535Z,90.10
2018-05-09T03:06:51.334Z,90.00
2018-05-09T03:09:19.355Z,90.00
2018-05-09T03:11:47.416Z,90.00
2018-05-09T03:14:15.824Z,90.10
2018-05-09T03:16:43.773Z,90.40
2018-05-09T03:19:11.880Z,90.50
2018-05-09T03:21:40.476Z,90.20
2018-05-09T03:24:08.673Z,90.20
2018-05-09T03:26:36.414Z,90.10
2018-05-09T03:29:04.416Z,90.40
2018-05-09T03:31:32.253Z,90.60
2018-05-09T03:34:00.153Z,90.70
2018-05-09T03:36:28.033Z,90.60
2018-05-09T03:38:55.873Z,90.50
2018-05-09T03:41:23.733Z,90.50
2018-05-09T03:43:51.774Z,90.40
2018-05-09T03:46:20.278Z,90.40
2018-05-09T03:48:48.214Z,90.40
2018-05-09T03:51:16.454Z,90.50
2018-05-09T03:53:44.456Z,90.40
2018-05-09T03:56:12.314Z,90.50
2018-05-09T03:58:40.214Z,90.30
2018-05-09T04:01:08.108Z,90.10
2018-05-09T04:03:47.778Z,90.20
2018-05-09T04:06:27.619Z,89.20
2018-05-09T04:09:07.718Z,87.30
2018-05-09T04:11:36.598Z,83.90
2018-05-09T04:14:04.641Z,81.30
2018-05-09T04:16:33.298Z,79.20
2018-05-09T04:19:01.222Z,79.20
2018-05-09T04:21:29.138Z,79.90
2018-05-09T04:23:57.478Z,80.60
2018-05-09T04:26:25.299Z,81.30
2018-05-09T04:28:53.137Z,80.00
2018-05-09T04:31:20.956Z,77.90
2018-05-09T04:33:49.016Z,75.10
2018-05-09T04:36:17.017Z,72.40
2018-05-09T04:38:46.780Z,69.90
2018-05-09T04:41:14.557Z,67.40
2018-05-09T04:43:42.578Z,65.30
2018-05-09T04:46:10.557Z,62.50
2018-05-09T04:48:38.516Z,60.30
2018-05-09T04:51:06.437Z,59.00
2018-05-09T04:53:34.695Z,57.80
2018-05-09T04:56:02.575Z,56.80
2018-05-09T04:58:30.554Z,58.40
2018-05-09T05:00:58.454Z,58.70
2018-05-09T05:03:26.493Z,60.70
2018-05-09T05:05:54.454Z,64.00
2018-05-09T05:08:23.134Z,68.00
2018-05-09T05:10:51.074Z,67.90
2018-05-09T05:13:19.574Z,68.80
2018-05-09T05:15:48.030Z,68.20
2018-05-09T05:18:16.073Z,67.00
2018-05-09T05:20:46.094Z,65.60
2018-05-09T05:23:14.134Z,64.60
2018-05-09T05:25:42.295Z,65.30
2018-05-09T05:28:11.735Z,65.60
2018-05-09T05:30:39.595Z,65.30
2018-05-09T05:33:07.535Z,65.20
2018-05-09T05:35:35.599Z,64.80
2018-05-09T05:38:03.596Z,65.50
2018-05-09T05:40:31.239Z,66.30
2018-05-09T05:42:58.970Z,67.10
2018-05-09T05:45:26.806Z,67.70
2018-05-09T05:47:54.494Z,68.30
2018-05-09T05:50:22.217Z,68.60
2018-05-09T05:52:50.115Z,69.40
2018-05-09T05:55:18.375Z,70.00
2018-05-09T05:57:46.555Z,70.60
2018-05-09T06:00:14.269Z,70.90
2018-05-09T06:02:42.160Z,71.40
2018-05-09T06:05:09.915Z,73.00
2018-05-09T06:07:37.935Z,73.30
2018-05-09T06:10:05.675Z,72.50
2018-05-09T06:12:33.774Z,72.10
2018-05-09T06:15:01.792Z,70.20
2018-05-09T06:17:30.136Z,69.60
2018-05-09T06:19:58.076Z,68.80
2018-05-09T06:22:26.016Z,67.40
2018-05-09T06:24:53.856Z,66.50
2018-05-09T06:27:22.137Z,67.30
2018-05-09T06:29:49.979Z,64.30
2018-05-09T06:32:17.813Z,64.70
2018-05-09T06:34:45.834Z,63.90
2018-05-09T06:37:13.573Z,62.80
2018-05-09T06:39:41.459Z,63.20
2018-05-09T06:42:10.054Z,62.40
2018-05-09T06:44:37.986Z,62.50
2018-05-09T06:47:06.174Z,60.70
2018-05-09T06:49:34.243Z,62.70
2018-05-09T06:52:02.494Z,61.30
2018-05-09T06:54:30.354Z,60.80
2018-05-09T06:56:58.154Z,64.00
2018-05-09T06:59:26.617Z,62.80
2018-05-09T07:01:54.777Z,62.50
2018-05-09T07:04:23.416Z,59.50
2018-05-09T07:06:51.576Z,59.50
2018-05-09T07:09:19.556Z,59.10
2018-05-09T07:11:48.315Z,58.50
2018-05-09T07:14:16.156Z,58.50
2018-05-09T07:16:46.797Z,58.50
2018-05-09T07:19:15.077Z,58.50
2018-05-09T07:21:42.856Z,58.20
2018-05-09T07:24:10.696Z,56.30
2018-05-09T07:26:38.635Z,55.60
2018-05-09T07:29:06.656Z,54.80
2018-05-09T07:31:34.495Z,54.10
2018-05-09T07:34:02.355Z,53.20
2018-05-09T07:36:30.236Z,54.70
2018-05-09T07:38:58.335Z,52.80
2018-05-09T07:41:26.295Z,53.90
2018-05-09T07:43:54.420Z,51.20
2018-05-09T07:46:22.195Z,53.50
2018-05-09T07:48:50.096Z,52.20
2018-05-09T07:51:18.095Z,50.50
2018-05-09T07:53:45.956Z,49.30
2018-05-09T07:56:13.876Z,49.20
2018-05-09T07:58:41.635Z,50.40
2018-05-09T08:01:10.259Z,46.90
2018-05-09T08:03:38.322Z,46.60
2018-05-09T08:06:06.544Z,46.50
2018-05-09T08:08:34.621Z,46.10
2018-05-09T08:11:02.459Z,50.10
2018-05-09T08:13:30.734Z,47.10
2018-05-09T08:16:01.459Z,48.20
2018-05-09T08:18:29.474Z,46.80
2018-05-09T08:20:57.400Z,46.70
2018-05-09T08:23:25.254Z,47.50
2018-05-09T08:25:53.098Z,46.80
2018-05-09T08:28:21.654Z,45.80
2018-05-09T08:30:49.715Z,45.10
2018-05-09T08:33:17.574Z,48.80
2018-05-09T08:35:46.483Z,48.80
2018-05-09T08:38:14.634Z,48.80
2018-05-09T08:40:42.754Z,45.80
2018-05-09T08:43:10.657Z,47.00
2018-05-09T08:45:38.575Z,46.40
2018-05-09T08:48:06.614Z,46.30
2018-05-09T08:50:34.574Z,44.90
2018-05-09T08:53:02.615Z,42.70
2018-05-09T08:55:31.516Z,45.60
2018-05-09T08:57:58.974Z,45.60
2018-05-09T09:00:26.254Z,45.70
2018-05-09T09:02:54.955Z,41.80
2018-05-09T09:05:23.415Z,44.00
2018-05-09T09:07:51.496Z,44.00
2018-05-09T09:10:19.316Z,42.40
2018-05-09T09:12:47.216Z,41.00
2018-05-09T09:15:15.112Z,40.60
2018-05-09T09:17:43.236Z,43.00
2018-05-09T09:20:13.276Z,41.20
2018-05-09T09:22:41.876Z,41.30
2018-05-09T09:25:09.797Z,41.70
2018-05-09T09:27:37.759Z,40.10
2018-05-09T09:30:05.653Z,42.50
2018-05-09T09:32:33.698Z,41.40
2018-05-09T09:35:01.432Z,40.80
2018-05-09T09:37:29.496Z,39.30
2018-05-09T09:39:57.077Z,42.70
2018-05-09T09:42:24.538Z,43.00
2018-05-09T09:44:52.355Z,41.30
2018-05-09T09:47:20.080Z,41.70
2018-05-09T09:49:48.056Z,42.30
2018-05-09T09:52:16.015Z,40.40
2018-05-09T09:54:43.876Z,41.00
2018-05-09T09:57:11.896Z,42.80
2018-05-09T09:59:39.735Z,42.20
2018-05-09T10:02:07.756Z,41.10
2018-05-09T10:04:35.716Z,39.30
2018-05-09T10:07:03.896Z,40.10
2018-05-09T10:09:32.036Z,40.50
2018-05-09T10:12:00.816Z,41.10
2018-05-09T10:14:28.115Z,41.80
2018-05-09T10:16:57.756Z,42.70
2018-05-09T10:19:25.995Z,39.60
2018-05-09T10:21:53.815Z,39.60
2018-05-09T10:24:21.776Z,40.10
2018-05-09T10:26:49.817Z,40.30
2018-05-09T10:29:17.656Z,40.80
2018-05-09T10:31:45.536Z,40.60
2018-05-09T10:34:14.676Z,40.90
2018-05-09T10:36:42.616Z,40.50
2018-05-09T10:39:10.579Z,42.90
2018-05-09T10:41:38.575Z,44.90
2018-05-09T10:44:06.457Z,41.30
2018-05-09T10:46:34.235Z,43.00
2018-05-09T10:49:02.396Z,44.10
2018-05-09T10:51:30.240Z,43.60
2018-05-09T10:53:58.036Z,42.10
2018-05-09T10:56:26.656Z,43.90
2018-05-09T10:58:54.536Z,43.80
2018-05-09T11:01:22.523Z,43.70
2018-05-09T11:06:22.519Z,42.70
2018-05-09T11:08:50.579Z,42.60
2018-05-09T11:11:19.378Z,42.20
2018-05-09T11:13:47.380Z,42.20
2018-05-09T11:16:15.319Z,41.20
2018-05-09T11:18:43.418Z,42.10
2018-05-09T11:21:12.219Z,42.00
2018-05-09T11:23:40.138Z,42.00
2018-05-09T11:26:08.539Z,45.30
2018-05-09T11:28:37.022Z,43.60
2018-05-09T11:31:04.938Z,42.50
2018-05-09T11:33:32.906Z,42.80
2018-05-09T11:36:00.837Z,40.30
2018-05-09T11:38:29.073Z,40.60
2018-05-09T11:40:57.078Z,42.80
2018-05-09T11:43:24.979Z,41.10
2018-05-09T11:45:52.939Z,42.30
2018-05-09T11:48:21.000Z,39.10
2018-05-09T11:50:49.009Z,41.00
2018-05-09T11:53:17.470Z,42.60
2018-05-09T11:55:45.513Z,43.60
2018-05-09T11:58:13.660Z,44.00
2018-05-09T12:00:41.198Z,43.90
2018-05-09T12:03:08.956Z,43.20
2018-05-09T12:05:36.872Z,42.20
2018-05-09T12:08:04.880Z,41.50
2018-05-09T12:10:32.866Z,42.20
2018-05-09T12:13:01.122Z,43.70
2018-05-09T12:15:29.181Z,44.00
2018-05-09T12:17:57.280Z,42.70
2018-05-09T12:20:26.103Z,41.40
2018-05-09T12:22:54.116Z,40.60
2018-05-09T12:25:22.016Z,41.50
2018-05-09T12:27:50.256Z,39.70
2018-05-09T12:30:18.556Z,41.90
2018-05-09T12:32:47.856Z,41.00
2018-05-09T12:35:15.736Z,39.50
2018-05-09T12:37:43.595Z,41.20
2018-05-09T12:40:11.416Z,41.40
2018-05-09T12:42:40.116Z,42.50
2018-05-09T12:45:08.398Z,42.40
2018-05-09T12:47:36.395Z,41.10
2018-05-09T12:50:04.299Z,43.50
2018-05-09T12:52:32.135Z,41.80
2018-05-09T12:55:00.176Z,44.40
2018-05-09T12:57:28.255Z,41.60
2018-05-09T12:59:56.816Z,38.20
2018-05-09T13:02:24.537Z,38.20
2018-05-09T13:04:52.719Z,40.00
2018-05-09T13:07:20.719Z,39.10
2018-05-09T13:09:48.478Z,38.30
2018-05-09T13:12:16.299Z,38.30
2018-05-09T13:14:44.419Z,40.10
2018-05-09T13:17:12.418Z,39.10
2018-05-09T13:19:40.583Z,40.20
2018-05-09T13:22:08.539Z,39.80
2018-05-09T13:24:36.739Z,39.30
2018-05-09T13:27:07.039Z,39.30
2018-05-09T13:29:36.237Z,39.30
2018-05-09T13:32:04.358Z,41.50
2018-05-09T13:34:31.781Z,41.90
2018-05-09T13:36:59.679Z,41.20
2018-05-09T13:39:27.619Z,38.80
2018-05-09T13:41:55.476Z,40.80
2018-05-09T13:44:23.438Z,40.50
2018-05-09T13:46:51.456Z,40.30
2018-05-09T13:49:20.216Z,39.90
2018-05-09T13:51:48.257Z,39.90
2018-05-09T13:54:16.197Z,40.30
2018-05-09T13:56:44.060Z,40.70
2018-05-09T13:59:11.976Z,40.00
2018-05-09T14:01:39.818Z,39.10
2018-05-09T14:04:09.479Z,38.50
2018-05-09T14:06:37.458Z,39.90
2018-05-09T14:09:05.535Z,41.00
2018-05-09T14:11:33.416Z,42.10
2018-05-09T14:14:01.075Z,41.90
2018-05-09T14:16:28.516Z,39.50
2018-05-09T14:18:56.815Z,42.60
2018-05-09T14:21:24.817Z,42.70
2018-05-09T14:23:52.695Z,40.40
2018-05-09T14:26:20.636Z,39.40
2018-05-09T14:28:48.175Z,39.70
2018-05-09T14:31:16.100Z,40.70
2018-05-09T14:33:44.176Z,38.80
2018-05-09T14:36:12.435Z,41.80
2018-05-09T14:38:40.515Z,41.10
2018-05-09T14:41:08.515Z,39.50
2018-05-09T14:43:36.515Z,40.90
2018-05-09T14:46:04.057Z,39.10
2018-05-09T14:48:31.577Z,39.40
2018-05-09T14:50:59.295Z,39.60
2018-05-09T14:53:26.796Z,39.70
2018-05-09T14:55:54.276Z,39.60
2018-05-09T14:58:22.095Z,39.10
2018-05-09T15:00:49.841Z,39.20
2018-05-09T15:03:17.301Z,39.30
2018-05-09T15:05:45.621Z,40.50
2018-05-09T15:08:13.043Z,40.00
2018-05-09T15:10:40.543Z,40.30
2018-05-09T15:13:09.538Z,40.80
2018-05-09T15:15:37.179Z,40.50
2018-05-09T15:18:04.999Z,40.60
2018-05-09T15:20:33.183Z,39.40
2018-05-09T15:23:00.643Z,39.60
2018-05-09T15:25:28.111Z,39.80
2018-05-09T15:27:55.560Z,37.90
2018-05-09T15:30:22.980Z,38.20
2018-05-09T15:32:50.681Z,38.30
2018-05-09T15:35:18.420Z,39.20
2018-05-09T15:37:45.859Z,38.40
2018-05-09T15:40:14.098Z,39.30
2018-05-09T15:42:41.640Z,39.30
2018-05-09T15:45:09.274Z,38.70
2018-05-09T15:47:37.294Z,38.70
2018-05-09T15:50:05.376Z,38.50
2018-05-09T15:52:33.494Z,38.20
2018-05-09T15:55:01.436Z,38.30
2018-05-09T15:57:29.374Z,40.90
2018-05-09T15:59:57.654Z,40.50
2018-05-09T16:02:25.575Z,39.30
2018-05-09T16:04:53.615Z,39.40
2018-05-09T16:07:21.615Z,38.90
2018-05-09T16:09:49.516Z,40.00
2018-05-09T16:12:17.550Z,41.20
2018-05-09T16:17:17.740Z,40.40
2018-05-09T16:19:45.953Z,40.60
2018-05-09T16:22:13.831Z,40.40
2018-05-09T16:24:41.757Z,41.10
2018-05-09T16:27:09.696Z,41.20
2018-05-09T16:29:37.698Z,42.50
2018-05-09T16:32:05.676Z,42.50
2018-05-09T16:34:33.057Z,42.80
2018-05-09T16:37:01.715Z,43.10
2018-05-09T16:39:29.816Z,43.10
2018-05-09T16:41:57.596Z,42.40
2018-05-09T16:44:25.816Z,43.60
2018-05-09T16:46:53.717Z,44.30
2018-05-09T16:49:21.777Z,44.80
2018-05-09T16:51:50.296Z,44.80
2018-05-09T16:54:18.455Z,45.10
2018-05-09T16:56:46.636Z,45.90
2018-05-09T16:59:16.440Z,46.90
2018-05-09T17:01:44.356Z,46.50
2018-05-09T17:04:13.336Z,47.00
2018-05-09T17:06:41.316Z,47.00
2018-05-09T17:09:09.296Z,46.60
2018-05-09T17:11:37.496Z,47.20
2018-05-09T17:14:06.816Z,47.50
2018-05-09T17:16:34.255Z,47.50
2018-05-09T17:19:01.816Z,48.10
2018-05-09T17:21:35.000Z,47.80
2018-05-09T17:24:02.375Z,47.90
2018-05-09T17:26:29.778Z,48.30
2018-05-09T17:28:57.227Z,48.20
2018-05-09T17:31:24.761Z,47.40
2018-05-09T17:33:52.124Z,47.80
2018-05-09T17:36:19.485Z,48.00
2018-05-09T17:41:19.083Z,48.60
2018-05-09T17:43:47.045Z,48.50
2018-05-09T17:46:14.964Z,48.30
2018-05-09T17:48:42.965Z,48.70
2018-05-09T17:51:11.665Z,48.70
2018-05-09T17:53:39.124Z,48.60
2018-05-09T17:56:07.264Z,48.90
2018-05-09T17:58:35.582Z,49.10
2018-05-09T18:01:03.587Z,49.00
2018-05-09T18:03:31.487Z,50.00
2018-05-09T18:05:59.357Z,51.30
2018-05-09T18:08:28.832Z,51.10
2018-05-09T18:10:57.160Z,50.60
2018-05-09T18:13:24.983Z,51.40
2018-05-09T18:15:52.800Z,51.30
2018-05-09T18:18:20.528Z,52.00
2018-05-09T18:20:49.206Z,53.40
2018-05-09T18:23:16.923Z,53.40
2018-05-09T18:25:44.676Z,53.40
2018-05-09T18:28:12.698Z,53.60
2018-05-09T18:30:40.619Z,54.00
2018-05-09T18:33:08.306Z,54.20
2018-05-09T18:35:36.056Z,54.00
2018-05-09T18:38:03.769Z,54.10
2018-05-09T18:40:31.526Z,54.90
2018-05-09T18:42:59.517Z,55.50
2018-05-09T18:45:27.442Z,56.00
2018-05-09T18:47:55.189Z,56.80
2018-05-09T18:50:22.977Z,57.40
2018-05-09T18:52:50.658Z,58.50
2018-05-09T18:55:18.397Z,57.90
2018-05-09T18:57:46.082Z,58.30
2018-05-09T19:00:13.837Z,57.60
2018-05-09T19:02:41.601Z,57.70
2018-05-09T19:05:09.330Z,57.80
2018-05-09T19:07:37.158Z,57.90
2018-05-09T19:10:05.011Z,58.20
2018-05-09T19:12:32.738Z,57.90
2018-05-09T19:15:01.446Z,57.70
2018-05-09T19:17:29.140Z,57.70
2018-05-09T19:19:57.123Z,58.20
2018-05-09T19:22:24.937Z,58.10
2018-05-09T19:24:52.619Z,57.90
2018-05-09T19:27:20.443Z,58.30
2018-05-09T19:32:20.431Z,58.70
2018-05-09T19:34:48.218Z,59.70
2018-05-09T19:37:15.926Z,59.50
2018-05-09T19:39:43.658Z,60.30
2018-05-09T19:42:11.354Z,59.50
2018-05-09T19:44:39.396Z,59.40
2018-05-09T19:47:07.300Z,59.40
2018-05-09T19:49:35.252Z,59.60
2018-05-09T19:52:03.441Z,60.10
2018-05-09T19:54:36.004Z,56.00
2018-05-09T19:57:04.017Z,57.70
2018-05-09T19:59:31.938Z,59.40
2018-05-09T20:02:00.324Z,58.50
2018-05-09T20:04:28.218Z,57.10
2018-05-09T20:06:55.948Z,56.50
2018-05-09T20:09:23.858Z,57.10
2018-05-09T20:11:51.597Z,61.10
2018-05-09T20:14:19.352Z,62.20
2018-05-09T20:16:47.112Z,63.30
2018-05-09T20:19:14.999Z,62.80
2018-05-09T20:21:43.162Z,62.70
2018-05-09T20:24:10.879Z,65.90
2018-05-09T20:26:38.719Z,63.50
2018-05-09T20:29:06.936Z,62.90
2018-05-09T20:31:52.225Z,63.30
2018-05-09T20:34:20.156Z,63.50
2018-05-09T20:36:47.996Z,63.80
2018-05-09T20:39:15.957Z,64.40
2018-05-09T20:41:43.896Z,65.20
2018-05-09T20:44:11.997Z,64.40
2018-05-09T20:46:41.296Z,65.30
2018-05-09T20:49:09.195Z,66.00
2018-05-09T20:51:49.077Z,65.70
2018-05-09T20:54:16.857Z,66.10
2018-05-09T20:56:44.738Z,65.70
2018-05-09T20:59:12.551Z,66.10
2018-05-09T21:01:49.959Z,67.00
2018-05-09T21:04:18.735Z,66.90
2018-05-09T21:06:46.977Z,66.80
2018-05-09T21:09:15.165Z,66.30
2018-05-09T21:11:48.772Z,66.40
2018-05-09T21:14:16.857Z,66.80
2018-05-09T21:16:44.935Z,66.90
2018-05-09T21:19:12.864Z,66.90
2018-05-09T21:21:40.904Z,67.00
2018-05-09T21:24:08.706Z,67.30
2018-05-09T21:26:36.652Z,66.90
2018-05-09T21:29:05.423Z,67.00
2018-05-09T21:31:33.673Z,67.00
2018-05-09T21:34:01.784Z,67.50
2018-05-09T21:36:29.984Z,67.50
2018-05-09T21:38:58.084Z,68.60
2018-05-09T21:41:26.104Z,68.70
2018-05-09T21:43:54.144Z,67.70
2018-05-09T21:46:22.903Z,68.40
2018-05-09T21:48:50.846Z,68.40
2018-05-09T21:51:18.903Z,68.70
2018-05-09T21:53:46.823Z,68.70
2018-05-09T21:56:14.703Z,68.60
2018-05-09T21:58:42.683Z,68.80
2018-05-09T22:01:10.581Z,69.00
2018-05-09T22:03:38.838Z,69.50
2018-05-09T22:06:07.362Z,69.80
2018-05-09T22:08:36.482Z,70.90
2018-05-09T22:11:04.881Z,70.10
2018-05-09T22:13:32.981Z,70.50
2018-05-09T22:16:01.661Z,70.50
2018-05-09T22:18:29.446Z,70.50
2018-05-09T22:20:57.594Z,70.50
2018-05-09T22:23:25.458Z,70.40
2018-05-09T22:25:53.273Z,70.20
2018-05-09T22:28:21.215Z,70.20
2018-05-09T22:30:49.496Z,70.40
2018-05-09T22:33:17.534Z,70.60
2018-05-09T22:35:45.416Z,70.80
2018-05-09T22:38:13.092Z,71.20
2018-05-09T22:40:41.098Z,71.50
2018-05-09T22:43:09.655Z,70.70
2018-05-09T22:45:37.823Z,70.90
2018-05-09T22:48:05.855Z,71.20
2018-05-09T22:50:33.815Z,71.50
2018-05-09T22:53:01.804Z,71.70
2018-05-09T22:55:29.793Z,71.90
2018-05-09T22:57:58.154Z,71.90
2018-05-09T23:00:26.894Z,72.90
2018-05-09T23:02:54.813Z,72.80
2018-05-09T23:05:23.093Z,73.30
2018-05-09T23:07:50.934Z,73.50
2018-05-09T23:10:19.230Z,73.50
2018-05-09T23:12:47.462Z,73.50
2018-05-09T23:15:15.273Z,73.70
2018-05-09T23:17:43.133Z,72.80
2018-05-09T23:20:10.954Z,69.20
2018-05-09T23:22:38.913Z,71.70
2018-05-09T23:25:06.973Z,72.40
2018-05-09T23:27:34.874Z,71.70
2018-05-09T23:30:02.834Z,71.20
2018-05-09T23:32:30.614Z,72.10
2018-05-09T23:34:58.535Z,71.50
2018-05-09T23:37:27.573Z,71.90
2018-05-09T23:39:55.854Z,71.80
2018-05-09T23:42:23.753Z,71.90
2018-05-09T23:44:51.953Z,72.60
2018-05-09T23:47:19.814Z,78.70
2018-05-09T23:49:47.654Z,80.30
2018-05-09T23:52:15.707Z,80.50
2018-05-09T23:54:43.614Z,79.90
2018-05-09T23:57:11.573Z,79.30
2018-05-09T23:59:39.453Z,78.70
